createdAt,value
2022-09-15T00:00:32.932Z,0.98
2022-09-15T00:03:00.082Z,1.00
2022-09-15T00:05:27.275Z,0.90
2022-09-15T00:07:54.351Z,0.90
2022-09-15T00:10:21.508Z,0.93
2022-09-15T00:12:48.629Z,0.95
2022-09-15T00:15:17.137Z,1.40
2022-09-15T00:17:49.252Z,1.00
2022-09-15T00:20:17.015Z,1.20
2022-09-15T00:22:44.112Z,0.90
2022-09-15T00:25:12.016Z,0.90
2022-09-15T00:27:39.130Z,0.88
2022-09-15T00:30:08.276Z,1.00
2022-09-15T00:32:36.730Z,0.80
2022-09-15T00:35:04.315Z,1.00
2022-09-15T00:37:31.428Z,1.00
2022-09-15T00:39:58.519Z,1.00
2022-09-15T00:42:25.935Z,0.90
2022-09-15T00:44:56.611Z,0.90
2022-09-15T00:47:28.708Z,1.10
2022-09-15T00:50:02.145Z,1.00
2022-09-15T00:52:34.520Z,0.93
2022-09-15T00:55:05.810Z,1.13
2022-09-15T00:57:37.014Z,0.90
2022-09-15T01:03:12.482Z,1.00
2022-09-15T01:05:48.364Z,1.00
2022-09-15T01:08:20.031Z,1.02
2022-09-15T01:10:47.129Z,0.90
2022-09-15T01:13:15.254Z,1.00
2022-09-15T01:15:57.568Z,1.10
2022-09-15T01:18:32.330Z,1.10
2022-09-15T01:21:34.900Z,1.00
2022-09-15T01:24:29.309Z,0.95
2022-09-15T01:30:03.455Z,0.88
2022-09-15T01:32:37.560Z,1.00
2022-09-15T01:35:19.275Z,1.00
2022-09-15T01:37:52.958Z,1.40
2022-09-15T01:40:23.759Z,1.08
2022-09-15T01:42:53.007Z,0.82
2022-09-15T01:45:25.287Z,0.95
2022-09-15T01:47:54.567Z,0.93
2022-09-15T01:50:24.197Z,0.80
2022-09-15T01:52:55.948Z,0.90
2022-09-15T01:55:30.584Z,1.00
2022-09-15T01:57:58.188Z,1.10
2022-09-15T02:00:26.624Z,1.10
2022-09-15T02:03:01.037Z,1.00
2022-09-15T02:05:34.536Z,1.10
2022-09-15T02:08:04.796Z,1.10
2022-09-15T02:10:37.444Z,1.05
2022-09-15T02:13:11.214Z,1.08
2022-09-15T02:15:43.201Z,1.10
2022-09-15T02:18:17.211Z,1.10
2022-09-15T02:20:47.990Z,1.20
2022-09-15T02:23:19.870Z,1.10
2022-09-15T02:25:49.977Z,1.00
2022-09-15T02:28:20.953Z,1.00
2022-09-15T02:30:53.408Z,1.13
2022-09-15T02:33:25.107Z,1.08
2022-09-15T02:35:52.850Z,1.00
2022-09-15T02:38:20.149Z,0.93
2022-09-15T02:40:48.088Z,1.10
2022-09-15T02:43:17.460Z,0.90
2022-09-15T02:45:44.686Z,1.23
2022-09-15T02:48:13.148Z,0.95
2022-09-15T02:50:40.368Z,1.00
2022-09-15T02:53:07.907Z,1.60
2022-09-15T02:55:35.127Z,1.00
2022-09-15T02:58:02.202Z,1.10
2022-09-15T03:00:29.542Z,1.10
2022-09-15T03:02:56.704Z,1.00
2022-09-15T03:05:27.863Z,1.00
2022-09-15T03:07:55.723Z,1.00
2022-09-15T03:10:24.445Z,1.17
2022-09-15T03:12:53.575Z,1.10
2022-09-15T03:15:23.039Z,1.08
2022-09-15T03:17:50.167Z,1.10
2022-09-15T03:20:19.065Z,1.10
2022-09-15T03:22:47.652Z,1.00
2022-09-15T03:25:14.842Z,0.80
2022-09-15T03:27:42.048Z,1.10
2022-09-15T03:30:10.645Z,1.00
2022-09-15T03:32:37.740Z,1.02
2022-09-15T03:35:06.166Z,1.02
2022-09-15T03:37:33.673Z,1.10
2022-09-15T03:40:03.132Z,0.90
2022-09-15T03:42:30.305Z,1.10
2022-09-15T03:44:57.405Z,1.02
2022-09-15T03:47:24.535Z,1.00
2022-09-15T03:49:51.638Z,1.10
2022-09-15T03:52:18.795Z,0.85
2022-09-15T03:54:47.823Z,1.10
2022-09-15T03:57:16.285Z,1.50
2022-09-15T03:59:43.443Z,1.10
2022-09-15T04:02:10.616Z,0.95
2022-09-15T04:04:37.725Z,1.20
2022-09-15T04:07:04.980Z,1.10
2022-09-15T04:09:32.077Z,0.80
2022-09-15T04:11:59.171Z,1.08
2022-09-15T04:14:27.647Z,1.25
2022-09-15T04:16:54.743Z,1.05
2022-09-15T04:19:21.847Z,1.00
2022-09-15T04:21:48.938Z,1.08
2022-09-15T04:24:16.568Z,1.00
2022-09-15T04:26:43.982Z,0.93
2022-09-15T04:29:13.332Z,1.27
2022-09-15T04:31:43.892Z,0.80
2022-09-15T04:34:11.047Z,0.85
2022-09-15T04:36:38.180Z,0.90
2022-09-15T04:39:05.486Z,1.00
2022-09-15T04:41:33.268Z,1.10
2022-09-15T04:44:00.445Z,1.25
2022-09-15T04:46:27.745Z,1.00
2022-09-15T04:48:56.807Z,1.00
2022-09-15T04:51:24.179Z,1.02
2022-09-15T04:53:51.861Z,1.10
2022-09-15T04:56:21.934Z,1.02
2022-09-15T04:58:50.997Z,1.20
2022-09-15T05:01:20.868Z,1.15
2022-09-15T05:03:48.361Z,1.20
2022-09-15T05:06:18.856Z,1.00
2022-09-15T05:08:47.473Z,1.25
2022-09-15T05:11:14.869Z,1.13
2022-09-15T05:13:42.672Z,1.00
2022-09-15T05:16:11.801Z,1.10
2022-09-15T05:18:40.281Z,1.25
2022-09-15T05:21:09.862Z,1.08
2022-09-15T05:23:38.354Z,1.20
2022-09-15T05:26:07.456Z,1.10
2022-09-15T05:28:36.338Z,1.15
2022-09-15T05:31:08.817Z,1.10
2022-09-15T05:33:36.086Z,1.23
2022-09-15T05:36:03.842Z,1.10
2022-09-15T05:38:32.160Z,1.30
2022-09-15T05:41:03.797Z,1.00
2022-09-15T05:43:31.318Z,1.85
2022-09-15T05:45:58.620Z,1.00
2022-09-15T05:48:25.744Z,1.20
2022-09-15T05:50:54.151Z,1.30
2022-09-15T05:53:21.860Z,1.00
2022-09-15T05:55:49.233Z,1.27
2022-09-15T05:58:17.668Z,0.95
2022-09-15T06:00:44.779Z,1.00
2022-09-15T06:03:14.637Z,1.20
2022-09-15T06:05:42.011Z,1.00
2022-09-15T06:08:09.324Z,1.10
2022-09-15T06:10:36.730Z,1.20
2022-09-15T06:13:03.833Z,1.30
2022-09-15T06:15:32.522Z,1.40
2022-09-15T06:17:59.640Z,1.20
2022-09-15T06:20:26.860Z,1.20
2022-09-15T06:22:53.993Z,1.27
2022-09-15T06:25:21.077Z,1.20
2022-09-15T06:27:49.092Z,1.30
2022-09-15T06:30:16.469Z,1.02
2022-09-15T06:32:48.055Z,1.20
2022-09-15T06:35:15.768Z,1.25
2022-09-15T06:37:42.913Z,1.48
2022-09-15T06:40:11.034Z,0.98
2022-09-15T06:42:38.212Z,1.10
2022-09-15T06:45:05.878Z,1.10
2022-09-15T06:47:32.982Z,1.08
2022-09-15T06:50:01.627Z,1.05
2022-09-15T06:52:28.755Z,1.05
2022-09-15T06:54:55.829Z,1.15
2022-09-15T06:57:22.940Z,1.35
2022-09-15T06:59:50.033Z,1.50
2022-09-15T07:02:17.223Z,1.30
2022-09-15T07:04:44.425Z,1.55
2022-09-15T07:07:12.871Z,1.33
2022-09-15T07:09:41.436Z,1.40
2022-09-15T07:12:09.043Z,1.20
2022-09-15T07:14:36.147Z,1.25
2022-09-15T07:17:03.275Z,1.40
2022-09-15T07:19:30.475Z,1.50
2022-09-15T07:21:57.741Z,1.23
2022-09-15T07:24:26.168Z,1.42
2022-09-15T07:26:53.274Z,1.38
2022-09-15T07:29:20.379Z,1.50
2022-09-15T07:31:47.559Z,1.13
2022-09-15T07:34:14.659Z,2.58
2022-09-15T07:36:41.768Z,4.28
2022-09-15T07:39:08.854Z,2.45
2022-09-15T07:41:38.466Z,2.15
2022-09-15T07:44:06.968Z,2.00
2022-09-15T07:46:34.057Z,1.73
2022-09-15T07:49:01.739Z,1.65
2022-09-15T07:51:28.843Z,2.20
2022-09-15T07:53:56.584Z,1.65
2022-09-15T07:56:23.657Z,2.00
2022-09-15T07:58:52.339Z,2.03
2022-09-15T08:01:20.474Z,2.05
2022-09-15T08:03:49.560Z,1.60
2022-09-15T08:06:18.630Z,1.67
2022-09-15T08:08:46.297Z,1.80
2022-09-15T08:11:18.636Z,1.35
2022-09-15T08:13:46.631Z,1.60
2022-09-15T08:16:16.892Z,1.63
2022-09-15T08:18:44.589Z,1.52
2022-09-15T08:21:14.058Z,1.90
2022-09-15T08:23:41.378Z,1.98
2022-09-15T08:26:14.180Z,1.77
2022-09-15T08:28:42.395Z,1.53
2022-09-15T08:31:12.410Z,1.60
2022-09-15T08:33:45.490Z,1.65
2022-09-15T08:36:13.386Z,1.80
2022-09-15T08:38:41.044Z,1.73
2022-09-15T08:41:18.841Z,1.67
2022-09-15T08:43:49.933Z,1.52
2022-09-15T08:46:22.765Z,1.58
2022-09-15T08:49:02.632Z,1.50
2022-09-15T08:51:36.502Z,1.48
2022-09-15T08:54:10.847Z,1.45
2022-09-15T08:56:40.014Z,1.50
2022-09-15T08:59:12.100Z,1.48
2022-09-15T09:01:51.815Z,1.80
2022-09-15T09:04:36.152Z,1.25
2022-09-15T09:07:14.506Z,1.70
2022-09-15T09:09:48.505Z,1.40
2022-09-15T09:15:02.719Z,1.27
2022-09-15T09:17:48.094Z,1.70
2022-09-15T09:20:32.352Z,1.30
2022-09-15T09:25:28.577Z,1.40
2022-09-15T09:27:56.940Z,1.88
2022-09-15T09:30:27.610Z,1.58
2022-09-15T09:33:17.417Z,1.15
2022-09-15T09:35:49.388Z,1.60
2022-09-15T09:38:20.885Z,1.30
2022-09-15T09:40:49.437Z,1.40
2022-09-15T09:43:17.009Z,1.30
2022-09-15T09:45:44.179Z,1.35
2022-09-15T09:48:17.349Z,1.30
2022-09-15T09:50:46.599Z,1.10
2022-09-15T09:53:19.682Z,1.63
2022-09-15T09:55:46.813Z,1.30
2022-09-15T09:58:18.528Z,1.40
2022-09-15T10:00:46.323Z,1.50
2022-09-15T10:03:17.058Z,1.40
2022-09-15T10:05:59.804Z,1.30
2022-09-15T10:08:27.376Z,1.45
2022-09-15T10:10:59.213Z,1.10
2022-09-15T10:13:26.466Z,1.30
2022-09-15T10:15:56.960Z,1.17
2022-09-15T10:18:30.049Z,1.40
2022-09-15T10:20:59.874Z,1.25
2022-09-15T10:23:28.727Z,1.40
2022-09-15T10:26:00.203Z,1.23
2022-09-15T10:28:28.283Z,1.42
2022-09-15T10:31:01.769Z,1.17
2022-09-15T10:33:31.017Z,1.63
2022-09-15T10:36:04.171Z,1.33
2022-09-15T10:38:38.895Z,1.23
2022-09-15T10:41:17.606Z,1.30
2022-09-15T10:44:02.493Z,1.00
2022-09-15T10:46:39.472Z,1.17
2022-09-15T10:49:23.422Z,1.50
2022-09-15T10:52:05.343Z,1.23
2022-09-15T10:55:00.152Z,1.30
2022-09-15T10:57:44.508Z,1.17
2022-09-15T11:00:16.739Z,1.10
2022-09-15T11:03:24.693Z,1.13
2022-09-15T11:06:04.172Z,0.98
2022-09-15T11:08:45.560Z,1.10
2022-09-15T11:11:18.493Z,1.17
2022-09-15T11:14:06.275Z,1.20
2022-09-15T11:16:48.013Z,1.30
2022-09-15T11:19:30.858Z,1.65
2022-09-15T11:22:03.096Z,1.10
2022-09-15T11:24:41.013Z,1.10
2022-09-15T11:27:16.624Z,1.13
2022-09-15T11:30:01.405Z,1.20
2022-09-15T11:32:34.704Z,1.10
2022-09-15T11:35:22.301Z,1.17
2022-09-15T11:37:52.725Z,1.20
2022-09-15T11:40:27.509Z,1.02
2022-09-15T11:42:59.523Z,1.10
2022-09-15T11:45:34.390Z,0.85
2022-09-15T11:48:06.297Z,1.42
2022-09-15T11:50:37.656Z,1.10
2022-09-15T11:53:13.781Z,1.05
2022-09-15T11:55:49.084Z,1.13
2022-09-15T11:58:22.730Z,1.13
2022-09-15T12:00:54.870Z,0.93
2022-09-15T12:03:27.483Z,1.00
2022-09-15T12:05:58.315Z,1.00
2022-09-15T12:08:31.953Z,0.77
2022-09-15T12:11:05.821Z,0.82
2022-09-15T12:13:33.380Z,0.90
2022-09-15T12:16:01.944Z,1.13
2022-09-15T12:18:41.051Z,1.00
2022-09-15T12:21:17.136Z,1.00
2022-09-15T12:23:51.037Z,0.90
2022-09-15T12:28:56.716Z,1.20
2022-09-15T12:31:35.937Z,1.05
2022-09-15T12:34:05.965Z,0.95
2022-09-15T12:36:42.576Z,1.02
2022-09-15T12:39:26.179Z,0.90
2022-09-15T12:41:57.436Z,0.98
2022-09-15T12:44:34.482Z,1.05
2022-09-15T12:47:04.507Z,1.00
2022-09-15T12:49:35.446Z,0.90
2022-09-15T12:52:06.647Z,0.88
2022-09-15T12:54:35.888Z,1.00
2022-09-15T12:57:05.544Z,0.85
2022-09-15T12:59:32.663Z,1.10
2022-09-15T13:01:59.819Z,1.02
2022-09-15T13:04:51.187Z,0.90
2022-09-15T13:07:33.064Z,1.05
2022-09-15T13:10:24.660Z,1.00
2022-09-15T13:13:04.141Z,0.90
2022-09-15T13:15:34.749Z,0.82
2022-09-15T13:18:05.567Z,0.98
2022-09-15T13:20:38.090Z,0.98
2022-09-15T13:23:09.291Z,0.80
2022-09-15T13:25:40.185Z,0.85
2022-09-15T13:30:53.027Z,0.90
2022-09-15T13:39:40.151Z,0.70
2022-09-15T13:42:32.161Z,0.90
2022-09-15T13:45:30.002Z,0.73
2022-09-15T13:48:19.126Z,0.90
2022-09-15T13:50:55.401Z,0.90
2022-09-15T13:53:38.792Z,1.08
2022-09-15T13:56:08.344Z,0.80
2022-09-15T14:01:25.234Z,0.70
2022-09-15T14:03:54.807Z,0.80
2022-09-15T14:06:25.706Z,0.80
2022-09-15T14:08:55.983Z,0.80
2022-09-15T14:11:27.962Z,1.25
2022-09-15T14:13:56.666Z,0.80
2022-09-15T14:16:32.625Z,0.80
2022-09-15T14:19:01.281Z,0.80
2022-09-15T14:21:30.638Z,0.70
2022-09-15T14:23:59.353Z,0.75
2022-09-15T14:26:29.356Z,0.90
2022-09-15T14:28:58.500Z,0.70
2022-09-15T14:31:32.649Z,0.70
2022-09-15T14:34:00.987Z,0.75
2022-09-15T14:36:30.185Z,0.60
2022-09-15T14:39:05.839Z,0.77
2022-09-15T14:41:32.966Z,0.93
2022-09-15T14:44:00.049Z,0.90
2022-09-15T14:46:37.250Z,0.70
2022-09-15T14:49:10.611Z,0.80
2022-09-15T14:51:38.933Z,0.90
2022-09-15T14:54:09.298Z,0.60
2022-09-15T14:56:40.681Z,0.70
2022-09-15T14:59:11.776Z,0.77
2022-09-15T15:01:42.624Z,0.75
2022-09-15T15:04:20.402Z,0.55
2022-09-15T15:06:55.129Z,0.80
2022-09-15T15:09:28.952Z,0.80
2022-09-15T15:12:00.650Z,0.80
2022-09-15T15:14:28.826Z,0.88
2022-09-15T15:17:00.813Z,0.80
2022-09-15T15:19:35.077Z,0.90
2022-09-15T15:22:16.995Z,1.02
2022-09-15T15:24:47.301Z,0.73
2022-09-15T15:27:43.022Z,0.65
2022-09-15T15:30:33.118Z,0.80
2022-09-15T15:33:04.030Z,0.88
2022-09-15T15:35:32.418Z,0.88
2022-09-15T15:38:02.304Z,0.60
2022-09-15T15:40:29.967Z,0.80
2022-09-15T15:43:02.812Z,0.70
2022-09-15T15:45:30.931Z,0.90
2022-09-15T15:47:58.321Z,0.90
2022-09-15T15:50:27.439Z,0.90
2022-09-15T15:52:54.813Z,0.70
2022-09-15T15:55:23.830Z,0.88
2022-09-15T15:57:52.681Z,0.70
2022-09-15T16:00:22.924Z,0.80
2022-09-15T16:02:50.986Z,0.80
2022-09-15T16:05:18.787Z,0.70
2022-09-15T16:07:49.896Z,0.82
2022-09-15T16:10:19.832Z,0.68
2022-09-15T16:12:47.909Z,0.80
2022-09-15T16:15:17.589Z,0.70
2022-09-15T16:17:46.885Z,0.70
2022-09-15T16:20:15.024Z,0.90
2022-09-15T16:22:42.915Z,0.88
2022-09-15T16:25:15.723Z,0.77
2022-09-15T16:27:42.829Z,0.80
2022-09-15T16:30:10.596Z,0.60
2022-09-15T16:32:38.705Z,0.90
2022-09-15T16:35:23.704Z,0.75
2022-09-15T16:37:50.819Z,0.80
2022-09-15T16:40:19.396Z,0.80
2022-09-15T16:42:47.507Z,0.90
2022-09-15T16:45:23.040Z,0.73
2022-09-15T16:47:50.148Z,0.90
2022-09-15T16:50:17.233Z,0.70
2022-09-15T16:52:44.432Z,1.02
2022-09-15T16:55:21.172Z,0.80
2022-09-15T16:57:48.268Z,0.80
2022-09-15T17:00:16.017Z,0.88
2022-09-15T17:02:43.138Z,0.90
2022-09-15T17:05:17.190Z,0.90
2022-09-15T17:07:44.322Z,0.93
2022-09-15T17:10:11.505Z,0.90
2022-09-15T17:12:40.030Z,0.80
2022-09-15T17:15:23.172Z,0.80
2022-09-15T17:17:50.640Z,0.90
2022-09-15T17:20:18.423Z,0.80
2022-09-15T17:22:46.250Z,1.10
2022-09-15T17:25:19.973Z,1.02
2022-09-15T17:27:48.477Z,0.70
2022-09-15T17:30:16.741Z,1.00
2022-09-15T17:32:44.812Z,0.93
2022-09-15T17:35:16.845Z,0.90
2022-09-15T17:37:44.500Z,0.90
2022-09-15T17:40:13.003Z,0.90
2022-09-15T17:42:40.508Z,0.90
2022-09-15T17:45:23.625Z,1.13
2022-09-15T17:47:51.197Z,0.90
2022-09-15T17:50:20.308Z,0.80
2022-09-15T17:52:48.450Z,0.98
2022-09-15T17:55:21.084Z,0.90
2022-09-15T17:57:49.064Z,0.70
2022-09-15T18:00:18.757Z,1.10
2022-09-15T18:02:51.283Z,0.93
2022-09-15T18:05:21.420Z,1.10
2022-09-15T18:07:48.767Z,1.05
2022-09-15T18:10:16.805Z,1.00
2022-09-15T18:12:46.899Z,1.10
2022-09-15T18:15:18.549Z,1.13
2022-09-15T18:17:45.680Z,1.02
2022-09-15T18:20:16.491Z,1.00
2022-09-15T18:22:44.748Z,1.15
2022-09-15T18:25:20.923Z,1.10
2022-09-15T18:27:47.997Z,0.98
2022-09-15T18:30:16.732Z,0.90
2022-09-15T18:32:44.311Z,1.20
2022-09-15T18:35:17.704Z,1.10
2022-09-15T18:37:47.732Z,0.90
2022-09-15T18:40:17.502Z,0.80
2022-09-15T18:42:45.367Z,0.85
2022-09-15T18:45:14.781Z,1.00
2022-09-15T18:47:42.092Z,0.90
2022-09-15T18:50:11.855Z,0.82
2022-09-15T18:52:41.687Z,1.10
2022-09-15T18:55:13.690Z,1.00
2022-09-15T18:57:41.525Z,0.82
2022-09-15T19:00:10.963Z,1.20
2022-09-15T19:02:38.353Z,0.98
2022-09-15T19:05:06.274Z,0.95
2022-09-15T19:07:33.691Z,1.08
2022-09-15T19:10:00.780Z,1.10
2022-09-15T19:12:29.187Z,1.08
2022-09-15T19:14:56.276Z,0.88
2022-09-15T19:17:23.379Z,1.08
2022-09-15T19:19:50.459Z,1.10
2022-09-15T19:22:17.612Z,1.00
2022-09-15T19:24:44.680Z,1.08
2022-09-15T19:27:11.768Z,1.00
2022-09-15T19:29:40.236Z,1.00
2022-09-15T19:32:09.933Z,0.90
2022-09-15T19:34:38.017Z,1.10
2022-09-15T19:37:10.685Z,1.23
2022-09-15T19:39:39.951Z,1.20
2022-09-15T19:42:07.842Z,1.13
2022-09-15T19:44:35.036Z,1.00
2022-09-15T19:47:03.891Z,1.10
2022-09-15T19:49:31.022Z,1.10
2022-09-15T19:51:58.111Z,1.10
2022-09-15T19:54:28.373Z,0.90
2022-09-15T19:56:55.827Z,0.93
2022-09-15T19:59:27.450Z,1.05
2022-09-15T20:01:57.647Z,1.05
2022-09-15T20:04:26.136Z,1.20
2022-09-15T20:06:53.612Z,1.00
2022-09-15T20:09:20.729Z,1.10
2022-09-15T20:11:47.937Z,1.10
2022-09-15T20:14:15.416Z,1.10
2022-09-15T20:16:42.715Z,1.10
2022-09-15T20:19:09.935Z,1.08
2022-09-15T20:21:55.835Z,1.05
2022-09-15T20:24:23.550Z,0.90
2022-09-15T20:26:51.084Z,1.00
2022-09-15T20:29:18.666Z,0.88
2022-09-15T20:31:45.984Z,1.20
2022-09-15T20:34:13.214Z,0.98
2022-09-15T20:36:41.633Z,1.20
2022-09-15T20:39:12.002Z,1.00
2022-09-15T20:41:39.887Z,1.15
2022-09-15T20:44:07.200Z,1.27
2022-09-15T20:46:34.711Z,1.08
2022-09-15T20:49:02.057Z,0.90
2022-09-15T20:51:30.260Z,1.00
2022-09-15T20:54:00.167Z,1.27
2022-09-15T20:56:29.193Z,1.10
2022-09-15T20:58:57.571Z,1.10
2022-09-15T21:01:26.433Z,1.00
2022-09-15T21:03:54.202Z,1.30
2022-09-15T21:06:23.320Z,1.20
2022-09-15T21:08:50.682Z,1.00
2022-09-15T21:11:20.645Z,0.93
2022-09-15T21:13:48.677Z,1.10
2022-09-15T21:16:17.661Z,1.00
2022-09-15T21:18:45.261Z,1.27
2022-09-15T21:21:14.349Z,1.20
2022-09-15T21:23:43.219Z,1.10
2022-09-15T21:26:12.085Z,1.23
2022-09-15T21:28:41.210Z,1.15
2022-09-15T21:31:10.392Z,1.02
2022-09-15T21:33:38.520Z,1.05
2022-09-15T21:36:07.733Z,1.20
2022-09-15T21:38:34.821Z,1.10
2022-09-15T21:41:02.325Z,1.20
2022-09-15T21:43:30.499Z,1.10
2022-09-15T21:45:59.028Z,0.90
2022-09-15T21:48:26.155Z,1.15
2022-09-15T21:50:54.054Z,1.20
2022-09-15T21:53:21.185Z,1.20
2022-09-15T21:55:48.733Z,1.15
2022-09-15T21:58:16.281Z,1.20
2022-09-15T22:00:43.607Z,1.35
2022-09-15T22:03:12.281Z,1.10
2022-09-15T22:05:40.144Z,1.13
2022-09-15T22:08:08.814Z,1.10
2022-09-15T22:10:36.422Z,1.10
2022-09-15T22:13:04.279Z,1.20
2022-09-15T22:15:31.490Z,1.20
2022-09-15T22:17:58.720Z,1.20
2022-09-15T22:20:27.935Z,0.95
2022-09-15T22:22:55.670Z,1.02
2022-09-15T22:25:22.776Z,1.30
2022-09-15T22:27:49.844Z,1.27
2022-09-15T22:30:17.142Z,1.25
2022-09-15T22:32:44.293Z,1.20
2022-09-15T22:35:11.394Z,1.05
2022-09-15T22:37:39.831Z,1.10
2022-09-15T22:40:07.849Z,1.15
2022-09-15T22:42:34.949Z,1.38
2022-09-15T22:45:02.068Z,1.10
2022-09-15T22:47:29.218Z,1.33
2022-09-15T22:49:56.307Z,1.20
2022-09-15T22:52:23.400Z,1.10
2022-09-15T22:54:51.830Z,1.30
2022-09-15T22:57:18.929Z,1.05
2022-09-15T22:59:46.019Z,1.20
2022-09-15T23:02:13.190Z,1.30
2022-09-15T23:04:40.296Z,1.23
2022-09-15T23:07:07.396Z,1.27
2022-09-15T23:09:34.490Z,1.08
2022-09-15T23:12:03.091Z,1.00
2022-09-15T23:14:30.158Z,1.10
2022-09-15T23:16:57.247Z,1.30
2022-09-15T23:19:24.320Z,1.50
2022-09-15T23:21:51.416Z,1.30
2022-09-15T23:24:18.546Z,1.25
2022-09-15T23:26:45.659Z,1.30
2022-09-15T23:29:14.216Z,1.05
2022-09-15T23:31:41.354Z,1.25
2022-09-15T23:34:08.581Z,1.30
2022-09-15T23:36:35.691Z,1.00
2022-09-15T23:39:03.785Z,1.10
2022-09-15T23:41:30.878Z,1.17
2022-09-15T23:43:57.966Z,1.40
2022-09-15T23:46:26.496Z,1.20
2022-09-15T23:48:53.634Z,1.10
2022-09-15T23:51:20.749Z,1.23
2022-09-15T23:53:47.948Z,1.40
2022-09-15T23:56:15.257Z,1.20
2022-09-15T23:58:42.392Z,1.10
